<?xml version="1.0" encoding="UTF-8"?>
<gpx
  version="1.0"
  creator="GPSBabel - http://www.gpsbabel.org"
  xmlns:xsi="http://www.w3.org/2001/XMLSchema-instance"
  xmlns="http://www.topografix.com/GPX/1/0"
  xsi:schemaLocation="http://www.topografix.com/GPX/1/1 http://www.topografix.com/GPX/1/1/gpx.xsd">
<time>2012-06-06T06:45:46Z</time>
<bounds minlat="27.768175000" minlon="-15.609357000" maxlat="27.855940000" maxlon="-15.578090000"/>
<trk>
  <name>maspalomas - ayagaures</name>
  <desc>maspalomas - ayagaures </desc>
<trkseg>
<trkpt lat="27.768472000" lon="-15.595667000">
  <ele>0.400000</ele>
  <time>2011-09-07T11:36:49Z</time>
</trkpt>
<trkpt lat="27.768388000" lon="-15.595587000">
  <ele>10.200000</ele>
  <time>2011-09-07T11:36:50Z</time>
</trkpt>
<trkpt lat="27.768322000" lon="-15.595641000">
  <ele>22.900000</ele>
  <time>2011-09-07T11:37:16Z</time>
</trkpt>
<trkpt lat="27.768331000" lon="-15.595767000">
  <ele>23.200000</ele>
  <time>2011-09-07T11:37:47Z</time>
</trkpt>
<trkpt lat="27.769063000" lon="-15.595426000">
  <ele>30.600000</ele>
  <time>2011-09-07T11:38:24Z</time>
</trkpt>
<trkpt lat="27.769365000" lon="-15.595412000">
  <ele>33.200000</ele>
  <time>2011-09-07T11:38:33Z</time>
</trkpt>
<trkpt lat="27.769601000" lon="-15.595509000">
  <ele>43.300000</ele>
  <time>2011-09-07T11:38:39Z</time>
</trkpt>
<trkpt lat="27.770299000" lon="-15.596115000">
  <ele>47.500000</ele>
  <time>2011-09-07T11:38:59Z</time>
</trkpt>
<trkpt lat="27.770417000" lon="-15.596338000">
  <ele>49.000000</ele>
  <time>2011-09-07T11:39:05Z</time>
</trkpt>
<trkpt lat="27.770439000" lon="-15.597810000">
  <ele>52.700000</ele>
  <time>2011-09-07T11:39:35Z</time>
</trkpt>
<trkpt lat="27.770593000" lon="-15.598197000">
  <ele>53.100000</ele>
  <time>2011-09-07T11:39:44Z</time>
</trkpt>
<trkpt lat="27.771103000" lon="-15.598792000">
  <ele>54.200000</ele>
  <time>2011-09-07T11:40:02Z</time>
</trkpt>
<trkpt lat="27.771802000" lon="-15.599837000">
  <ele>57.500000</ele>
  <time>2011-09-07T11:40:29Z</time>
</trkpt>
<trkpt lat="27.772718000" lon="-15.601472000">
  <ele>61.700000</ele>
  <time>2011-09-07T11:41:08Z</time>
</trkpt>
<trkpt lat="27.773568000" lon="-15.602330000">
  <ele>66.000000</ele>
  <time>2011-09-07T11:41:35Z</time>
</trkpt>
<trkpt lat="27.777281000" lon="-15.605308000">
  <ele>73.600000</ele>
  <time>2011-09-07T11:43:14Z</time>
</trkpt>
<trkpt lat="27.778413000" lon="-15.606104000">
  <ele>75.000000</ele>
  <time>2011-09-07T11:43:46Z</time>
</trkpt>
<trkpt lat="27.780377000" lon="-15.606848000">
  <ele>83.100000</ele>
  <time>2011-09-07T11:44:40Z</time>
</trkpt>
<trkpt lat="27.781390000" lon="-15.607430000">
  <ele>85.700000</ele>
  <time>2011-09-07T11:45:10Z</time>
</trkpt>
<trkpt lat="27.781929000" lon="-15.607924000">
  <ele>90.800000</ele>
  <time>2011-09-07T11:45:28Z</time>
</trkpt>
<trkpt lat="27.782711000" lon="-15.608288000">
  <ele>94.800000</ele>
  <time>2011-09-07T11:45:49Z</time>
</trkpt>
<trkpt lat="27.783982000" lon="-15.608411000">
  <ele>98.400000</ele>
  <time>2011-09-07T11:46:18Z</time>
</trkpt>
<trkpt lat="27.784826000" lon="-15.608356000">
  <ele>100.100000</ele>
  <time>2011-09-07T11:46:37Z</time>
</trkpt>
<trkpt lat="27.786162000" lon="-15.608440000">
  <ele>102.800000</ele>
  <time>2011-09-07T11:47:06Z</time>
</trkpt>
<trkpt lat="27.787066000" lon="-15.608733000">
  <ele>104.900000</ele>
  <time>2011-09-07T11:47:30Z</time>
</trkpt>
<trkpt lat="27.788347000" lon="-15.608421000">
  <ele>100.800000</ele>
  <time>2011-09-07T11:48:03Z</time>
</trkpt>
<trkpt lat="27.789142000" lon="-15.607981000">
  <ele>98.900000</ele>
  <time>2011-09-07T11:48:23Z</time>
</trkpt>
<trkpt lat="27.790100000" lon="-15.607922000">
  <ele>97.100000</ele>
  <time>2011-09-07T11:48:47Z</time>
</trkpt>
<trkpt lat="27.791073000" lon="-15.608306000">
  <ele>99.800000</ele>
  <time>2011-09-07T11:49:11Z</time>
</trkpt>
<trkpt lat="27.791751000" lon="-15.608799000">
  <ele>103.900000</ele>
  <time>2011-09-07T11:49:30Z</time>
</trkpt>
<trkpt lat="27.792089000" lon="-15.608905000">
  <ele>105.200000</ele>
  <time>2011-09-07T11:49:39Z</time>
</trkpt>
<trkpt lat="27.793255000" lon="-15.608750000">
  <ele>105.800000</ele>
  <time>2011-09-07T11:50:09Z</time>
</trkpt>
<trkpt lat="27.794640000" lon="-15.608347000">
  <ele>105.400000</ele>
  <time>2011-09-07T11:50:41Z</time>
</trkpt>
<trkpt lat="27.795541000" lon="-15.608584000">
  <ele>111.100000</ele>
  <time>2011-09-07T11:51:01Z</time>
</trkpt>
<trkpt lat="27.796547000" lon="-15.609357000">
  <ele>119.000000</ele>
  <time>2011-09-07T11:51:27Z</time>
</trkpt>
<trkpt lat="27.797418000" lon="-15.609224000">
  <ele>119.400000</ele>
  <time>2011-09-07T11:51:47Z</time>
</trkpt>
<trkpt lat="27.797847000" lon="-15.609073000">
  <ele>122.300000</ele>
  <time>2011-09-07T11:51:57Z</time>
</trkpt>
<trkpt lat="27.798853000" lon="-15.608513000">
  <ele>124.200000</ele>
  <time>2011-09-07T11:52:22Z</time>
</trkpt>
<trkpt lat="27.799754000" lon="-15.608529000">
  <ele>128.300000</ele>
  <time>2011-09-07T11:52:39Z</time>
</trkpt>
<trkpt lat="27.800420000" lon="-15.608299000">
  <ele>127.300000</ele>
  <time>2011-09-07T11:52:55Z</time>
</trkpt>
<trkpt lat="27.800691000" lon="-15.608047000">
  <ele>127.400000</ele>
  <time>2011-09-07T11:53:04Z</time>
</trkpt>
<trkpt lat="27.800993000" lon="-15.607934000">
  <ele>127.400000</ele>
  <time>2011-09-07T11:53:11Z</time>
</trkpt>
<trkpt lat="27.801708000" lon="-15.608106000">
  <ele>131.900000</ele>
  <time>2011-09-07T11:53:26Z</time>
</trkpt>
<trkpt lat="27.802660000" lon="-15.607878000">
  <ele>133.000000</ele>
  <time>2011-09-07T11:53:48Z</time>
</trkpt>
<trkpt lat="27.803593000" lon="-15.607325000">
  <ele>132.900000</ele>
  <time>2011-09-07T11:54:14Z</time>
</trkpt>
<trkpt lat="27.804040000" lon="-15.607314000">
  <ele>138.600000</ele>
  <time>2011-09-07T11:54:22Z</time>
</trkpt>
<trkpt lat="27.804855000" lon="-15.606925000">
  <ele>139.600000</ele>
  <time>2011-09-07T11:54:41Z</time>
</trkpt>
<trkpt lat="27.805662000" lon="-15.606831000">
  <ele>141.900000</ele>
  <time>2011-09-07T11:54:58Z</time>
</trkpt>
<trkpt lat="27.806429000" lon="-15.607047000">
  <ele>151.600000</ele>
  <time>2011-09-07T11:55:12Z</time>
</trkpt>
<trkpt lat="27.807755000" lon="-15.607846000">
  <ele>159.900000</ele>
  <time>2011-09-07T11:55:44Z</time>
</trkpt>
<trkpt lat="27.808469000" lon="-15.608030000">
  <ele>160.800000</ele>
  <time>2011-09-07T11:55:59Z</time>
</trkpt>
<trkpt lat="27.808910000" lon="-15.607911000">
  <ele>160.100000</ele>
  <time>2011-09-07T11:56:10Z</time>
</trkpt>
<trkpt lat="27.809883000" lon="-15.607904000">
  <ele>162.700000</ele>
  <time>2011-09-07T11:56:33Z</time>
</trkpt>
<trkpt lat="27.810682000" lon="-15.607689000">
  <ele>164.100000</ele>
  <time>2011-09-07T11:56:53Z</time>
</trkpt>
<trkpt lat="27.811148000" lon="-15.607420000">
  <ele>166.700000</ele>
  <time>2011-09-07T11:57:04Z</time>
</trkpt>
<trkpt lat="27.811517000" lon="-15.607307000">
  <ele>168.400000</ele>
  <time>2011-09-07T11:57:12Z</time>
</trkpt>
<trkpt lat="27.811899000" lon="-15.607347000">
  <ele>169.700000</ele>
  <time>2011-09-07T11:57:20Z</time>
</trkpt>
<trkpt lat="27.812755000" lon="-15.607215000">
  <ele>171.900000</ele>
  <time>2011-09-07T11:57:38Z</time>
</trkpt>
<trkpt lat="27.813029000" lon="-15.607092000">
  <ele>172.100000</ele>
  <time>2011-09-07T11:57:44Z</time>
</trkpt>
<trkpt lat="27.813379000" lon="-15.607067000">
  <ele>172.800000</ele>
  <time>2011-09-07T11:57:52Z</time>
</trkpt>
<trkpt lat="27.814037000" lon="-15.607283000">
  <ele>175.700000</ele>
  <time>2011-09-07T11:58:06Z</time>
</trkpt>
<trkpt lat="27.814834000" lon="-15.606863000">
  <ele>171.700000</ele>
  <time>2011-09-07T11:58:26Z</time>
</trkpt>
<trkpt lat="27.815351000" lon="-15.606470000">
  <ele>170.000000</ele>
  <time>2011-09-07T11:58:41Z</time>
</trkpt>
<trkpt lat="27.815676000" lon="-15.606413000">
  <ele>169.900000</ele>
  <time>2011-09-07T11:58:52Z</time>
</trkpt>
<trkpt lat="27.815843000" lon="-15.606504000">
  <ele>170.400000</ele>
  <time>2011-09-07T11:58:56Z</time>
</trkpt>
<trkpt lat="27.816300000" lon="-15.607495000">
  <ele>180.600000</ele>
  <time>2011-09-07T11:59:17Z</time>
</trkpt>
<trkpt lat="27.816669000" lon="-15.607992000">
  <ele>181.200000</ele>
  <time>2011-09-07T11:59:33Z</time>
</trkpt>
<trkpt lat="27.816939000" lon="-15.608174000">
  <ele>181.200000</ele>
  <time>2011-09-07T11:59:42Z</time>
</trkpt>
<trkpt lat="27.817352000" lon="-15.608203000">
  <ele>181.300000</ele>
  <time>2011-09-07T11:59:54Z</time>
</trkpt>
<trkpt lat="27.817617000" lon="-15.608031000">
  <ele>181.800000</ele>
  <time>2011-09-07T12:00:03Z</time>
</trkpt>
<trkpt lat="27.818135000" lon="-15.607156000">
  <ele>184.600000</ele>
  <time>2011-09-07T12:00:32Z</time>
</trkpt>
<trkpt lat="27.818629000" lon="-15.606865000">
  <ele>186.200000</ele>
  <time>2011-09-07T12:00:45Z</time>
</trkpt>
<trkpt lat="27.819849000" lon="-15.606423000">
  <ele>186.300000</ele>
  <time>2011-09-07T12:01:13Z</time>
</trkpt>
<trkpt lat="27.820450000" lon="-15.606319000">
  <ele>187.900000</ele>
  <time>2011-09-07T12:01:26Z</time>
</trkpt>
<trkpt lat="27.822154000" lon="-15.606367000">
  <ele>203.700000</ele>
  <time>2011-09-07T12:02:01Z</time>
</trkpt>
<trkpt lat="27.822636000" lon="-15.606287000">
  <ele>205.800000</ele>
  <time>2011-09-07T12:02:12Z</time>
</trkpt>
<trkpt lat="27.822970000" lon="-15.606053000">
  <ele>206.600000</ele>
  <time>2011-09-07T12:02:21Z</time>
</trkpt>
<trkpt lat="27.824272000" lon="-15.605515000">
  <ele>209.600000</ele>
  <time>2011-09-07T12:02:55Z</time>
</trkpt>
<trkpt lat="27.824805000" lon="-15.605700000">
  <ele>210.700000</ele>
  <time>2011-09-07T12:03:10Z</time>
</trkpt>
<trkpt lat="27.825470000" lon="-15.606270000">
  <ele>211.400000</ele>
  <time>2011-09-07T12:03:30Z</time>
</trkpt>
<trkpt lat="27.825815000" lon="-15.606346000">
  <ele>211.600000</ele>
  <time>2011-09-07T12:03:39Z</time>
</trkpt>
<trkpt lat="27.826230000" lon="-15.606315000">
  <ele>212.200000</ele>
  <time>2011-09-07T12:03:53Z</time>
</trkpt>
<trkpt lat="27.827075000" lon="-15.605771000">
  <ele>218.600000</ele>
  <time>2011-09-07T12:04:18Z</time>
</trkpt>
<trkpt lat="27.827702000" lon="-15.605469000">
  <ele>220.600000</ele>
  <time>2011-09-07T12:04:32Z</time>
</trkpt>
<trkpt lat="27.828498000" lon="-15.605210000">
  <ele>222.200000</ele>
  <time>2011-09-07T12:04:52Z</time>
</trkpt>
<trkpt lat="27.828820000" lon="-15.605254000">
  <ele>222.900000</ele>
  <time>2011-09-07T12:05:03Z</time>
</trkpt>
<trkpt lat="27.829023000" lon="-15.605443000">
  <ele>223.200000</ele>
  <time>2011-09-07T12:05:09Z</time>
</trkpt>
<trkpt lat="27.829306000" lon="-15.605944000">
  <ele>223.800000</ele>
  <time>2011-09-07T12:05:17Z</time>
</trkpt>
<trkpt lat="27.829477000" lon="-15.606075000">
  <ele>224.100000</ele>
  <time>2011-09-07T12:05:23Z</time>
</trkpt>
<trkpt lat="27.830149000" lon="-15.605848000">
  <ele>225.900000</ele>
  <time>2011-09-07T12:05:49Z</time>
</trkpt>
<trkpt lat="27.830551000" lon="-15.605520000">
  <ele>227.200000</ele>
  <time>2011-09-07T12:06:01Z</time>
</trkpt>
<trkpt lat="27.831719000" lon="-15.605168000">
  <ele>231.600000</ele>
  <time>2011-09-07T12:06:32Z</time>
</trkpt>
<trkpt lat="27.833067000" lon="-15.605233000">
  <ele>232.200000</ele>
  <time>2011-09-07T12:07:04Z</time>
</trkpt>
<trkpt lat="27.833651000" lon="-15.606327000">
  <ele>236.900000</ele>
  <time>2011-09-07T12:07:23Z</time>
</trkpt>
<trkpt lat="27.834294000" lon="-15.607189000">
  <ele>240.000000</ele>
  <time>2011-09-07T12:07:44Z</time>
</trkpt>
<trkpt lat="27.834740000" lon="-15.607456000">
  <ele>240.700000</ele>
  <time>2011-09-07T12:07:56Z</time>
</trkpt>
<trkpt lat="27.834991000" lon="-15.607519000">
  <ele>241.700000</ele>
  <time>2011-09-07T12:08:02Z</time>
</trkpt>
<trkpt lat="27.836904000" lon="-15.607499000">
  <ele>247.100000</ele>
  <time>2011-09-07T12:08:50Z</time>
</trkpt>
<trkpt lat="27.837578000" lon="-15.607075000">
  <ele>247.000000</ele>
  <time>2011-09-07T12:09:11Z</time>
</trkpt>
<trkpt lat="27.838298000" lon="-15.606960000">
  <ele>251.200000</ele>
  <time>2011-09-07T12:09:27Z</time>
</trkpt>
<trkpt lat="27.839860000" lon="-15.607735000">
  <ele>254.600000</ele>
  <time>2011-09-07T12:10:03Z</time>
</trkpt>
<trkpt lat="27.841376000" lon="-15.607930000">
  <ele>256.900000</ele>
  <time>2011-09-07T12:10:40Z</time>
</trkpt>
<trkpt lat="27.842045000" lon="-15.608251000">
  <ele>259.000000</ele>
  <time>2011-09-07T12:10:58Z</time>
</trkpt>
<trkpt lat="27.842230000" lon="-15.608166000">
  <ele>259.200000</ele>
  <time>2011-09-07T12:11:04Z</time>
</trkpt>
<trkpt lat="27.842485000" lon="-15.607776000">
  <ele>260.000000</ele>
  <time>2011-09-07T12:11:16Z</time>
</trkpt>
<trkpt lat="27.843095000" lon="-15.607447000">
  <ele>261.200000</ele>
  <time>2011-09-07T12:11:32Z</time>
</trkpt>
<trkpt lat="27.844488000" lon="-15.606990000">
  <ele>263.200000</ele>
  <time>2011-09-07T12:12:10Z</time>
</trkpt>
<trkpt lat="27.845464000" lon="-15.607182000">
  <ele>270.100000</ele>
  <time>2011-09-07T12:12:38Z</time>
</trkpt>
<trkpt lat="27.846169000" lon="-15.607983000">
  <ele>276.200000</ele>
  <time>2011-09-07T12:13:05Z</time>
</trkpt>
<trkpt lat="27.846681000" lon="-15.608097000">
  <ele>278.500000</ele>
  <time>2011-09-07T12:13:20Z</time>
</trkpt>
<trkpt lat="27.847637000" lon="-15.607729000">
  <ele>280.700000</ele>
  <time>2011-09-07T12:13:51Z</time>
</trkpt>
<trkpt lat="27.849213000" lon="-15.607418000">
  <ele>283.000000</ele>
  <time>2011-09-07T12:14:33Z</time>
</trkpt>
<trkpt lat="27.849770000" lon="-15.607201000">
  <ele>285.200000</ele>
  <time>2011-09-07T12:14:53Z</time>
</trkpt>
<trkpt lat="27.849803000" lon="-15.607307000">
  <ele>285.800000</ele>
  <time>2011-09-07T12:14:57Z</time>
</trkpt>
<trkpt lat="27.849657000" lon="-15.607600000">
  <ele>287.000000</ele>
  <time>2011-09-07T12:15:11Z</time>
</trkpt>
<trkpt lat="27.849063000" lon="-15.608064000">
  <ele>287.300000</ele>
  <time>2011-09-07T12:15:42Z</time>
</trkpt>
<trkpt lat="27.848992000" lon="-15.608504000">
  <ele>287.900000</ele>
  <time>2011-09-07T12:16:03Z</time>
</trkpt>
<trkpt lat="27.849079000" lon="-15.608541000">
  <ele>288.500000</ele>
  <time>2011-09-07T12:16:11Z</time>
</trkpt>
<trkpt lat="27.849236000" lon="-15.608253000">
  <ele>289.900000</ele>
  <time>2011-09-07T12:16:29Z</time>
</trkpt>
<trkpt lat="27.849506000" lon="-15.608116000">
  <ele>291.000000</ele>
  <time>2011-09-07T12:16:43Z</time>
</trkpt>
<trkpt lat="27.849654000" lon="-15.607842000">
  <ele>292.700000</ele>
  <time>2011-09-07T12:17:01Z</time>
</trkpt>
<trkpt lat="27.849762000" lon="-15.607865000">
  <ele>293.300000</ele>
  <time>2011-09-07T12:17:06Z</time>
</trkpt>
<trkpt lat="27.849808000" lon="-15.607967000">
  <ele>294.200000</ele>
  <time>2011-09-07T12:17:12Z</time>
</trkpt>
<trkpt lat="27.849680000" lon="-15.608410000">
  <ele>296.300000</ele>
  <time>2011-09-07T12:17:33Z</time>
</trkpt>
<trkpt lat="27.849517000" lon="-15.608683000">
  <ele>297.300000</ele>
  <time>2011-09-07T12:17:47Z</time>
</trkpt>
<trkpt lat="27.849694000" lon="-15.608600000">
  <ele>298.600000</ele>
  <time>2011-09-07T12:18:03Z</time>
</trkpt>
<trkpt lat="27.849798000" lon="-15.608285000">
  <ele>299.800000</ele>
  <time>2011-09-07T12:18:20Z</time>
</trkpt>
<trkpt lat="27.850092000" lon="-15.607994000">
  <ele>300.900000</ele>
  <time>2011-09-07T12:18:39Z</time>
</trkpt>
<trkpt lat="27.850143000" lon="-15.607781000">
  <ele>302.400000</ele>
  <time>2011-09-07T12:18:52Z</time>
</trkpt>
<trkpt lat="27.850328000" lon="-15.607504000">
  <ele>304.100000</ele>
  <time>2011-09-07T12:19:05Z</time>
</trkpt>
<trkpt lat="27.850608000" lon="-15.607398000">
  <ele>305.300000</ele>
  <time>2011-09-07T12:19:14Z</time>
</trkpt>
<trkpt lat="27.851322000" lon="-15.607404000">
  <ele>316.500000</ele>
  <time>2011-09-07T12:19:30Z</time>
</trkpt>
<trkpt lat="27.851469000" lon="-15.606988000">
  <ele>317.700000</ele>
  <time>2011-09-07T12:19:43Z</time>
</trkpt>
<trkpt lat="27.851421000" lon="-15.606504000">
  <ele>319.900000</ele>
  <time>2011-09-07T12:20:12Z</time>
</trkpt>
<trkpt lat="27.851362000" lon="-15.606495000">
  <ele>320.200000</ele>
  <time>2011-09-07T12:20:33Z</time>
</trkpt>
<trkpt lat="27.851405000" lon="-15.606463000">
  <ele>320.300000</ele>
  <time>2011-09-07T12:21:08Z</time>
</trkpt>
<trkpt lat="27.850662000" lon="-15.605785000">
  <ele>320.200000</ele>
  <time>2011-09-07T12:22:37Z</time>
</trkpt>
<trkpt lat="27.850704000" lon="-15.605548000">
  <ele>321.500000</ele>
  <time>2011-09-07T12:23:34Z</time>
</trkpt>
<trkpt lat="27.850857000" lon="-15.605440000">
  <ele>321.600000</ele>
  <time>2011-09-07T12:24:07Z</time>
</trkpt>
<trkpt lat="27.850815000" lon="-15.605415000">
  <ele>321.600000</ele>
  <time>2011-09-07T12:24:18Z</time>
</trkpt>
<trkpt lat="27.850698000" lon="-15.605807000">
  <ele>319.900000</ele>
  <time>2011-09-07T12:25:52Z</time>
</trkpt>
<trkpt lat="27.850672000" lon="-15.605722000">
  <ele>319.700000</ele>
  <time>2011-09-07T12:26:18Z</time>
</trkpt>
<trkpt lat="27.850675000" lon="-15.605782000">
  <ele>319.400000</ele>
  <time>2011-09-07T12:26:41Z</time>
</trkpt>
<trkpt lat="27.850213000" lon="-15.606081000">
  <ele>319.200000</ele>
  <time>2011-09-07T12:27:34Z</time>
</trkpt>
<trkpt lat="27.849918000" lon="-15.606027000">
  <ele>319.400000</ele>
  <time>2011-09-07T12:27:46Z</time>
</trkpt>
<trkpt lat="27.849576000" lon="-15.605537000">
  <ele>320.200000</ele>
  <time>2011-09-07T12:28:05Z</time>
</trkpt>
<trkpt lat="27.849329000" lon="-15.605337000">
  <ele>321.000000</ele>
  <time>2011-09-07T12:28:18Z</time>
</trkpt>
<trkpt lat="27.849015000" lon="-15.605362000">
  <ele>321.800000</ele>
  <time>2011-09-07T12:28:33Z</time>
</trkpt>
<trkpt lat="27.848513000" lon="-15.605766000">
  <ele>323.400000</ele>
  <time>2011-09-07T12:29:02Z</time>
</trkpt>
<trkpt lat="27.848219000" lon="-15.605691000">
  <ele>324.400000</ele>
  <time>2011-09-07T12:29:16Z</time>
</trkpt>
<trkpt lat="27.847879000" lon="-15.605182000">
  <ele>326.400000</ele>
  <time>2011-09-07T12:29:40Z</time>
</trkpt>
<trkpt lat="27.847329000" lon="-15.605202000">
  <ele>328.400000</ele>
  <time>2011-09-07T12:30:04Z</time>
</trkpt>
<trkpt lat="27.846934000" lon="-15.604897000">
  <ele>330.500000</ele>
  <time>2011-09-07T12:30:25Z</time>
</trkpt>
<trkpt lat="27.846426000" lon="-15.604818000">
  <ele>332.900000</ele>
  <time>2011-09-07T12:30:48Z</time>
</trkpt>
<trkpt lat="27.845791000" lon="-15.604429000">
  <ele>336.200000</ele>
  <time>2011-09-07T12:31:21Z</time>
</trkpt>
<trkpt lat="27.845428000" lon="-15.604622000">
  <ele>337.900000</ele>
  <time>2011-09-07T12:31:37Z</time>
</trkpt>
<trkpt lat="27.845136000" lon="-15.604633000">
  <ele>339.100000</ele>
  <time>2011-09-07T12:31:50Z</time>
</trkpt>
<trkpt lat="27.844791000" lon="-15.604412000">
  <ele>341.000000</ele>
  <time>2011-09-07T12:32:09Z</time>
</trkpt>
<trkpt lat="27.844596000" lon="-15.604456000">
  <ele>341.800000</ele>
  <time>2011-09-07T12:32:18Z</time>
</trkpt>
<trkpt lat="27.844263000" lon="-15.604734000">
  <ele>343.800000</ele>
  <time>2011-09-07T12:32:39Z</time>
</trkpt>
<trkpt lat="27.843991000" lon="-15.604623000">
  <ele>345.900000</ele>
  <time>2011-09-07T12:32:56Z</time>
</trkpt>
<trkpt lat="27.843717000" lon="-15.604128000">
  <ele>349.000000</ele>
  <time>2011-09-07T12:33:21Z</time>
</trkpt>
<trkpt lat="27.843526000" lon="-15.604168000">
  <ele>350.100000</ele>
  <time>2011-09-07T12:33:29Z</time>
</trkpt>
<trkpt lat="27.843248000" lon="-15.604514000">
  <ele>353.000000</ele>
  <time>2011-09-07T12:33:48Z</time>
</trkpt>
<trkpt lat="27.842894000" lon="-15.604733000">
  <ele>355.900000</ele>
  <time>2011-09-07T12:34:06Z</time>
</trkpt>
<trkpt lat="27.841732000" lon="-15.604720000">
  <ele>363.200000</ele>
  <time>2011-09-07T12:34:54Z</time>
</trkpt>
<trkpt lat="27.841179000" lon="-15.604616000">
  <ele>366.300000</ele>
  <time>2011-09-07T12:35:18Z</time>
</trkpt>
<trkpt lat="27.840723000" lon="-15.604356000">
  <ele>369.200000</ele>
  <time>2011-09-07T12:35:41Z</time>
</trkpt>
<trkpt lat="27.839935000" lon="-15.604085000">
  <ele>372.900000</ele>
  <time>2011-09-07T12:36:20Z</time>
</trkpt>
<trkpt lat="27.839860000" lon="-15.603892000">
  <ele>374.300000</ele>
  <time>2011-09-07T12:36:33Z</time>
</trkpt>
<trkpt lat="27.839906000" lon="-15.603803000">
  <ele>374.900000</ele>
  <time>2011-09-07T12:36:39Z</time>
</trkpt>
<trkpt lat="27.840208000" lon="-15.603854000">
  <ele>377.200000</ele>
  <time>2011-09-07T12:37:00Z</time>
</trkpt>
<trkpt lat="27.841300000" lon="-15.603699000">
  <ele>387.300000</ele>
  <time>2011-09-07T12:38:03Z</time>
</trkpt>
<trkpt lat="27.841978000" lon="-15.603286000">
  <ele>393.000000</ele>
  <time>2011-09-07T12:38:44Z</time>
</trkpt>
<trkpt lat="27.843405000" lon="-15.602916000">
  <ele>404.200000</ele>
  <time>2011-09-07T12:39:59Z</time>
</trkpt>
<trkpt lat="27.843334000" lon="-15.602842000">
  <ele>405.700000</ele>
  <time>2011-09-07T12:40:09Z</time>
</trkpt>
<trkpt lat="27.842831000" lon="-15.602856000">
  <ele>409.400000</ele>
  <time>2011-09-07T12:40:33Z</time>
</trkpt>
<trkpt lat="27.841230000" lon="-15.602552000">
  <ele>421.300000</ele>
  <time>2011-09-07T12:41:50Z</time>
</trkpt>
<trkpt lat="27.839809000" lon="-15.602718000">
  <ele>428.200000</ele>
  <time>2011-09-07T12:42:55Z</time>
</trkpt>
<trkpt lat="27.839238000" lon="-15.602858000">
  <ele>431.100000</ele>
  <time>2011-09-07T12:43:26Z</time>
</trkpt>
<trkpt lat="27.838865000" lon="-15.602751000">
  <ele>433.200000</ele>
  <time>2011-09-07T12:43:51Z</time>
</trkpt>
<trkpt lat="27.838387000" lon="-15.602732000">
  <ele>436.700000</ele>
  <time>2011-09-07T12:44:23Z</time>
</trkpt>
<trkpt lat="27.837835000" lon="-15.602505000">
  <ele>441.700000</ele>
  <time>2011-09-07T12:45:00Z</time>
</trkpt>
<trkpt lat="27.837341000" lon="-15.602539000">
  <ele>445.500000</ele>
  <time>2011-09-07T12:45:34Z</time>
</trkpt>
<trkpt lat="27.836867000" lon="-15.602685000">
  <ele>448.400000</ele>
  <time>2011-09-07T12:46:03Z</time>
</trkpt>
<trkpt lat="27.836316000" lon="-15.602521000">
  <ele>458.200000</ele>
  <time>2011-09-07T12:46:24Z</time>
</trkpt>
<trkpt lat="27.835317000" lon="-15.601846000">
  <ele>467.600000</ele>
  <time>2011-09-07T12:47:52Z</time>
</trkpt>
<trkpt lat="27.835298000" lon="-15.601950000">
  <ele>468.300000</ele>
  <time>2011-09-07T12:48:13Z</time>
</trkpt>
<trkpt lat="27.835361000" lon="-15.601795000">
  <ele>468.500000</ele>
  <time>2011-09-07T12:49:53Z</time>
</trkpt>
<trkpt lat="27.836953000" lon="-15.601274000">
  <ele>471.800000</ele>
  <time>2011-09-07T12:52:23Z</time>
</trkpt>
<trkpt lat="27.837832000" lon="-15.600736000">
  <ele>470.000000</ele>
  <time>2011-09-07T12:52:39Z</time>
</trkpt>
<trkpt lat="27.839328000" lon="-15.600341000">
  <ele>464.600000</ele>
  <time>2011-09-07T12:53:11Z</time>
</trkpt>
<trkpt lat="27.840178000" lon="-15.600277000">
  <ele>462.700000</ele>
  <time>2011-09-07T12:53:27Z</time>
</trkpt>
<trkpt lat="27.840839000" lon="-15.600346000">
  <ele>458.400000</ele>
  <time>2011-09-07T12:53:39Z</time>
</trkpt>
<trkpt lat="27.842494000" lon="-15.601280000">
  <ele>448.800000</ele>
  <time>2011-09-07T12:54:15Z</time>
</trkpt>
<trkpt lat="27.843151000" lon="-15.601295000">
  <ele>447.300000</ele>
  <time>2011-09-07T12:54:27Z</time>
</trkpt>
<trkpt lat="27.843746000" lon="-15.601121000">
  <ele>445.300000</ele>
  <time>2011-09-07T12:54:39Z</time>
</trkpt>
<trkpt lat="27.844714000" lon="-15.601072000">
  <ele>441.100000</ele>
  <time>2011-09-07T12:54:59Z</time>
</trkpt>
<trkpt lat="27.846251000" lon="-15.600362000">
  <ele>435.200000</ele>
  <time>2011-09-07T12:55:29Z</time>
</trkpt>
<trkpt lat="27.846905000" lon="-15.599949000">
  <ele>434.200000</ele>
  <time>2011-09-07T12:55:41Z</time>
</trkpt>
<trkpt lat="27.847797000" lon="-15.599714000">
  <ele>431.600000</ele>
  <time>2011-09-07T12:55:57Z</time>
</trkpt>
<trkpt lat="27.848189000" lon="-15.599496000">
  <ele>427.700000</ele>
  <time>2011-09-07T12:56:05Z</time>
</trkpt>
<trkpt lat="27.848590000" lon="-15.599093000">
  <ele>427.800000</ele>
  <time>2011-09-07T12:56:15Z</time>
</trkpt>
<trkpt lat="27.848902000" lon="-15.598932000">
  <ele>427.400000</ele>
  <time>2011-09-07T12:56:23Z</time>
</trkpt>
<trkpt lat="27.849257000" lon="-15.598544000">
  <ele>427.200000</ele>
  <time>2011-09-07T12:56:40Z</time>
</trkpt>
<trkpt lat="27.849645000" lon="-15.598330000">
  <ele>426.900000</ele>
  <time>2011-09-07T12:56:58Z</time>
</trkpt>
<trkpt lat="27.849679000" lon="-15.597820000">
  <ele>425.300000</ele>
  <time>2011-09-07T12:57:11Z</time>
</trkpt>
<trkpt lat="27.849971000" lon="-15.597518000">
  <ele>425.500000</ele>
  <time>2011-09-07T12:57:20Z</time>
</trkpt>
<trkpt lat="27.850841000" lon="-15.597157000">
  <ele>424.400000</ele>
  <time>2011-09-07T12:57:38Z</time>
</trkpt>
<trkpt lat="27.851008000" lon="-15.596987000">
  <ele>424.100000</ele>
  <time>2011-09-07T12:57:42Z</time>
</trkpt>
<trkpt lat="27.851147000" lon="-15.596682000">
  <ele>424.200000</ele>
  <time>2011-09-07T12:57:48Z</time>
</trkpt>
<trkpt lat="27.851762000" lon="-15.596555000">
  <ele>421.800000</ele>
  <time>2011-09-07T12:58:01Z</time>
</trkpt>
<trkpt lat="27.852142000" lon="-15.596302000">
  <ele>421.300000</ele>
  <time>2011-09-07T12:58:10Z</time>
</trkpt>
<trkpt lat="27.853211000" lon="-15.596160000">
  <ele>418.500000</ele>
  <time>2011-09-07T12:58:39Z</time>
</trkpt>
<trkpt lat="27.853511000" lon="-15.595883000">
  <ele>415.900000</ele>
  <time>2011-09-07T12:58:56Z</time>
</trkpt>
<trkpt lat="27.853834000" lon="-15.595995000">
  <ele>415.000000</ele>
  <time>2011-09-07T12:59:06Z</time>
</trkpt>
<trkpt lat="27.854346000" lon="-15.595813000">
  <ele>414.000000</ele>
  <time>2011-09-07T12:59:26Z</time>
</trkpt>
<trkpt lat="27.854495000" lon="-15.595582000">
  <ele>417.500000</ele>
  <time>2011-09-07T12:59:49Z</time>
</trkpt>
<trkpt lat="27.855550000" lon="-15.595361000">
  <ele>423.200000</ele>
  <time>2011-09-07T13:00:18Z</time>
</trkpt>
<trkpt lat="27.855940000" lon="-15.594905000">
  <ele>426.400000</ele>
  <time>2011-09-07T13:00:36Z</time>
</trkpt>
<trkpt lat="27.855891000" lon="-15.594700000">
  <ele>426.500000</ele>
  <time>2011-09-07T13:00:46Z</time>
</trkpt>
<trkpt lat="27.855650000" lon="-15.594420000">
  <ele>426.900000</ele>
  <time>2011-09-07T13:01:01Z</time>
</trkpt>
<trkpt lat="27.855474000" lon="-15.594352000">
  <ele>427.100000</ele>
  <time>2011-09-07T13:01:16Z</time>
</trkpt>
<trkpt lat="27.854387000" lon="-15.594467000">
  <ele>428.800000</ele>
  <time>2011-09-07T13:02:14Z</time>
</trkpt>
<trkpt lat="27.854084000" lon="-15.594750000">
  <ele>429.600000</ele>
  <time>2011-09-07T13:02:37Z</time>
</trkpt>
<trkpt lat="27.853700000" lon="-15.594700000">
  <ele>430.600000</ele>
  <time>2011-09-07T13:02:57Z</time>
</trkpt>
<trkpt lat="27.853572000" lon="-15.594536000">
  <ele>431.200000</ele>
  <time>2011-09-07T13:03:07Z</time>
</trkpt>
<trkpt lat="27.853488000" lon="-15.594091000">
  <ele>432.300000</ele>
  <time>2011-09-07T13:03:28Z</time>
</trkpt>
<trkpt lat="27.853299000" lon="-15.593832000">
  <ele>432.900000</ele>
  <time>2011-09-07T13:03:42Z</time>
</trkpt>
<trkpt lat="27.853002000" lon="-15.593813000">
  <ele>433.600000</ele>
  <time>2011-09-07T13:03:58Z</time>
</trkpt>
<trkpt lat="27.852833000" lon="-15.593929000">
  <ele>434.100000</ele>
  <time>2011-09-07T13:04:09Z</time>
</trkpt>
<trkpt lat="27.852342000" lon="-15.594772000">
  <ele>439.500000</ele>
  <time>2011-09-07T13:04:48Z</time>
</trkpt>
<trkpt lat="27.852076000" lon="-15.594957000">
  <ele>441.800000</ele>
  <time>2011-09-07T13:05:03Z</time>
</trkpt>
<trkpt lat="27.851504000" lon="-15.594869000">
  <ele>444.800000</ele>
  <time>2011-09-07T13:05:27Z</time>
</trkpt>
<trkpt lat="27.851109000" lon="-15.594558000">
  <ele>446.300000</ele>
  <time>2011-09-07T13:05:47Z</time>
</trkpt>
<trkpt lat="27.850624000" lon="-15.594390000">
  <ele>447.500000</ele>
  <time>2011-09-07T13:06:10Z</time>
</trkpt>
<trkpt lat="27.850241000" lon="-15.594523000">
  <ele>448.300000</ele>
  <time>2011-09-07T13:06:28Z</time>
</trkpt>
<trkpt lat="27.849838000" lon="-15.595192000">
  <ele>449.600000</ele>
  <time>2011-09-07T13:06:55Z</time>
</trkpt>
<trkpt lat="27.849662000" lon="-15.595299000">
  <ele>450.300000</ele>
  <time>2011-09-07T13:07:03Z</time>
</trkpt>
<trkpt lat="27.849454000" lon="-15.595248000">
  <ele>451.300000</ele>
  <time>2011-09-07T13:07:13Z</time>
</trkpt>
<trkpt lat="27.848917000" lon="-15.595599000">
  <ele>453.200000</ele>
  <time>2011-09-07T13:07:41Z</time>
</trkpt>
<trkpt lat="27.848657000" lon="-15.595861000">
  <ele>455.500000</ele>
  <time>2011-09-07T13:07:50Z</time>
</trkpt>
<trkpt lat="27.848347000" lon="-15.596035000">
  <ele>457.800000</ele>
  <time>2011-09-07T13:07:58Z</time>
</trkpt>
<trkpt lat="27.848112000" lon="-15.596344000">
  <ele>458.800000</ele>
  <time>2011-09-07T13:08:07Z</time>
</trkpt>
<trkpt lat="27.847596000" lon="-15.596295000">
  <ele>459.500000</ele>
  <time>2011-09-07T13:08:22Z</time>
</trkpt>
<trkpt lat="27.847415000" lon="-15.596188000">
  <ele>459.700000</ele>
  <time>2011-09-07T13:08:28Z</time>
</trkpt>
<trkpt lat="27.846718000" lon="-15.596172000">
  <ele>461.800000</ele>
  <time>2011-09-07T13:08:46Z</time>
</trkpt>
<trkpt lat="27.846150000" lon="-15.595839000">
  <ele>461.700000</ele>
  <time>2011-09-07T13:09:03Z</time>
</trkpt>
<trkpt lat="27.845792000" lon="-15.595439000">
  <ele>461.000000</ele>
  <time>2011-09-07T13:09:14Z</time>
</trkpt>
<trkpt lat="27.845602000" lon="-15.595422000">
  <ele>460.900000</ele>
  <time>2011-09-07T13:09:18Z</time>
</trkpt>
<trkpt lat="27.845389000" lon="-15.595525000">
  <ele>460.600000</ele>
  <time>2011-09-07T13:09:23Z</time>
</trkpt>
<trkpt lat="27.844777000" lon="-15.596194000">
  <ele>458.600000</ele>
  <time>2011-09-07T13:09:39Z</time>
</trkpt>
<trkpt lat="27.844445000" lon="-15.596245000">
  <ele>458.800000</ele>
  <time>2011-09-07T13:09:48Z</time>
</trkpt>
<trkpt lat="27.843541000" lon="-15.595684000">
  <ele>455.800000</ele>
  <time>2011-09-07T13:10:10Z</time>
</trkpt>
<trkpt lat="27.843325000" lon="-15.595247000">
  <ele>454.900000</ele>
  <time>2011-09-07T13:10:18Z</time>
</trkpt>
<trkpt lat="27.843915000" lon="-15.594004000">
  <ele>451.000000</ele>
  <time>2011-09-07T13:10:44Z</time>
</trkpt>
<trkpt lat="27.844268000" lon="-15.593624000">
  <ele>450.700000</ele>
  <time>2011-09-07T13:10:56Z</time>
</trkpt>
<trkpt lat="27.844497000" lon="-15.592881000">
  <ele>449.800000</ele>
  <time>2011-09-07T13:11:22Z</time>
</trkpt>
<trkpt lat="27.844931000" lon="-15.592525000">
  <ele>449.300000</ele>
  <time>2011-09-07T13:11:38Z</time>
</trkpt>
<trkpt lat="27.845138000" lon="-15.592229000">
  <ele>447.800000</ele>
  <time>2011-09-07T13:11:46Z</time>
</trkpt>
<trkpt lat="27.845690000" lon="-15.591863000">
  <ele>448.400000</ele>
  <time>2011-09-07T13:12:00Z</time>
</trkpt>
<trkpt lat="27.846018000" lon="-15.591885000">
  <ele>448.100000</ele>
  <time>2011-09-07T13:12:08Z</time>
</trkpt>
<trkpt lat="27.846250000" lon="-15.591794000">
  <ele>447.500000</ele>
  <time>2011-09-07T13:12:14Z</time>
</trkpt>
<trkpt lat="27.846460000" lon="-15.591434000">
  <ele>447.400000</ele>
  <time>2011-09-07T13:12:22Z</time>
</trkpt>
<trkpt lat="27.846781000" lon="-15.591270000">
  <ele>447.100000</ele>
  <time>2011-09-07T13:12:31Z</time>
</trkpt>
<trkpt lat="27.847375000" lon="-15.591335000">
  <ele>445.200000</ele>
  <time>2011-09-07T13:12:46Z</time>
</trkpt>
<trkpt lat="27.847626000" lon="-15.590576000">
  <ele>444.500000</ele>
  <time>2011-09-07T13:13:04Z</time>
</trkpt>
<trkpt lat="27.847721000" lon="-15.590507000">
  <ele>444.700000</ele>
  <time>2011-09-07T13:13:07Z</time>
</trkpt>
<trkpt lat="27.848259000" lon="-15.590586000">
  <ele>442.900000</ele>
  <time>2011-09-07T13:13:20Z</time>
</trkpt>
<trkpt lat="27.848466000" lon="-15.590143000">
  <ele>441.100000</ele>
  <time>2011-09-07T13:13:30Z</time>
</trkpt>
<trkpt lat="27.848558000" lon="-15.589619000">
  <ele>440.400000</ele>
  <time>2011-09-07T13:13:40Z</time>
</trkpt>
<trkpt lat="27.848727000" lon="-15.589485000">
  <ele>440.800000</ele>
  <time>2011-09-07T13:13:47Z</time>
</trkpt>
<trkpt lat="27.848912000" lon="-15.589169000">
  <ele>441.900000</ele>
  <time>2011-09-07T13:13:57Z</time>
</trkpt>
<trkpt lat="27.849130000" lon="-15.589071000">
  <ele>442.700000</ele>
  <time>2011-09-07T13:14:03Z</time>
</trkpt>
<trkpt lat="27.849449000" lon="-15.589166000">
  <ele>440.400000</ele>
  <time>2011-09-07T13:14:12Z</time>
</trkpt>
<trkpt lat="27.850193000" lon="-15.588954000">
  <ele>443.400000</ele>
  <time>2011-09-07T13:14:33Z</time>
</trkpt>
<trkpt lat="27.850450000" lon="-15.588418000">
  <ele>445.500000</ele>
  <time>2011-09-07T13:14:43Z</time>
</trkpt>
<trkpt lat="27.850595000" lon="-15.587767000">
  <ele>465.400000</ele>
  <time>2011-09-07T13:14:51Z</time>
</trkpt>
<trkpt lat="27.850788000" lon="-15.587607000">
  <ele>466.200000</ele>
  <time>2011-09-07T13:14:57Z</time>
</trkpt>
<trkpt lat="27.850917000" lon="-15.587629000">
  <ele>461.600000</ele>
  <time>2011-09-07T13:15:00Z</time>
</trkpt>
<trkpt lat="27.851324000" lon="-15.588117000">
  <ele>447.300000</ele>
  <time>2011-09-07T13:15:08Z</time>
</trkpt>
<trkpt lat="27.852032000" lon="-15.588026000">
  <ele>440.800000</ele>
  <time>2011-09-07T13:15:26Z</time>
</trkpt>
<trkpt lat="27.852815000" lon="-15.588234000">
  <ele>433.600000</ele>
  <time>2011-09-07T13:15:47Z</time>
</trkpt>
<trkpt lat="27.853061000" lon="-15.588154000">
  <ele>431.300000</ele>
  <time>2011-09-07T13:16:21Z</time>
</trkpt>
<trkpt lat="27.853207000" lon="-15.588222000">
  <ele>430.300000</ele>
  <time>2011-09-07T13:17:02Z</time>
</trkpt>
<trkpt lat="27.853239000" lon="-15.588444000">
  <ele>434.500000</ele>
  <time>2011-09-07T13:17:34Z</time>
</trkpt>
<trkpt lat="27.853313000" lon="-15.588464000">
  <ele>436.300000</ele>
  <time>2011-09-07T13:17:44Z</time>
</trkpt>
<trkpt lat="27.853497000" lon="-15.588969000">
  <ele>452.200000</ele>
  <time>2011-09-07T13:21:17Z</time>
</trkpt>
<trkpt lat="27.853066000" lon="-15.588526000">
  <ele>441.800000</ele>
  <time>2011-09-07T13:23:00Z</time>
</trkpt>
<trkpt lat="27.853053000" lon="-15.588413000">
  <ele>439.600000</ele>
  <time>2011-09-07T13:23:10Z</time>
</trkpt>
<trkpt lat="27.852945000" lon="-15.588357000">
  <ele>438.000000</ele>
  <time>2011-09-07T13:23:34Z</time>
</trkpt>
<trkpt lat="27.852995000" lon="-15.588392000">
  <ele>435.100000</ele>
  <time>2011-09-07T13:24:14Z</time>
</trkpt>
<trkpt lat="27.852938000" lon="-15.588526000">
  <ele>433.000000</ele>
  <time>2011-09-07T13:24:34Z</time>
</trkpt>
<trkpt lat="27.852932000" lon="-15.588362000">
  <ele>430.100000</ele>
  <time>2011-09-07T13:25:06Z</time>
</trkpt>
<trkpt lat="27.853055000" lon="-15.588210000">
  <ele>429.800000</ele>
  <time>2011-09-07T13:25:46Z</time>
</trkpt>
<trkpt lat="27.853019000" lon="-15.588244000">
  <ele>429.900000</ele>
  <time>2011-09-07T13:25:58Z</time>
</trkpt>
<trkpt lat="27.853085000" lon="-15.588119000">
  <ele>430.500000</ele>
  <time>2011-09-07T13:26:51Z</time>
</trkpt>
<trkpt lat="27.852872000" lon="-15.587890000">
  <ele>432.200000</ele>
  <time>2011-09-07T13:27:08Z</time>
</trkpt>
<trkpt lat="27.851793000" lon="-15.587358000">
  <ele>436.700000</ele>
  <time>2011-09-07T13:27:48Z</time>
</trkpt>
<trkpt lat="27.850667000" lon="-15.587042000">
  <ele>437.600000</ele>
  <time>2011-09-07T13:28:23Z</time>
</trkpt>
<trkpt lat="27.850280000" lon="-15.587005000">
  <ele>437.500000</ele>
  <time>2011-09-07T13:28:35Z</time>
</trkpt>
<trkpt lat="27.849769000" lon="-15.587130000">
  <ele>438.000000</ele>
  <time>2011-09-07T13:28:53Z</time>
</trkpt>
<trkpt lat="27.848801000" lon="-15.586944000">
  <ele>438.800000</ele>
  <time>2011-09-07T13:29:26Z</time>
</trkpt>
<trkpt lat="27.848439000" lon="-15.587067000">
  <ele>438.900000</ele>
  <time>2011-09-07T13:29:38Z</time>
</trkpt>
<trkpt lat="27.848024000" lon="-15.587022000">
  <ele>439.200000</ele>
  <time>2011-09-07T13:29:58Z</time>
</trkpt>
<trkpt lat="27.847081000" lon="-15.587310000">
  <ele>439.300000</ele>
  <time>2011-09-07T13:30:54Z</time>
</trkpt>
<trkpt lat="27.844683000" lon="-15.586997000">
  <ele>448.600000</ele>
  <time>2011-09-07T13:33:18Z</time>
</trkpt>
<trkpt lat="27.844290000" lon="-15.587039000">
  <ele>450.900000</ele>
  <time>2011-09-07T13:33:43Z</time>
</trkpt>
<trkpt lat="27.844118000" lon="-15.587142000">
  <ele>453.200000</ele>
  <time>2011-09-07T13:33:57Z</time>
</trkpt>
<trkpt lat="27.843420000" lon="-15.587140000">
  <ele>467.900000</ele>
  <time>2011-09-07T13:34:37Z</time>
</trkpt>
<trkpt lat="27.843348000" lon="-15.587079000">
  <ele>469.500000</ele>
  <time>2011-09-07T13:34:45Z</time>
</trkpt>
<trkpt lat="27.843341000" lon="-15.585864000">
  <ele>476.900000</ele>
  <time>2011-09-07T13:35:36Z</time>
</trkpt>
<trkpt lat="27.843293000" lon="-15.585861000">
  <ele>477.300000</ele>
  <time>2011-09-07T13:36:06Z</time>
</trkpt>
<trkpt lat="27.843565000" lon="-15.585133000">
  <ele>481.100000</ele>
  <time>2011-09-07T13:36:40Z</time>
</trkpt>
<trkpt lat="27.843703000" lon="-15.584963000">
  <ele>482.100000</ele>
  <time>2011-09-07T13:36:48Z</time>
</trkpt>
<trkpt lat="27.845160000" lon="-15.584531000">
  <ele>486.600000</ele>
  <time>2011-09-07T13:37:55Z</time>
</trkpt>
<trkpt lat="27.845831000" lon="-15.583893000">
  <ele>484.400000</ele>
  <time>2011-09-07T13:38:18Z</time>
</trkpt>
<trkpt lat="27.846418000" lon="-15.583543000">
  <ele>485.600000</ele>
  <time>2011-09-07T13:38:30Z</time>
</trkpt>
<trkpt lat="27.846492000" lon="-15.583336000">
  <ele>485.500000</ele>
  <time>2011-09-07T13:38:37Z</time>
</trkpt>
<trkpt lat="27.846111000" lon="-15.583088000">
  <ele>484.200000</ele>
  <time>2011-09-07T13:38:50Z</time>
</trkpt>
<trkpt lat="27.844564000" lon="-15.582848000">
  <ele>475.900000</ele>
  <time>2011-09-07T13:39:21Z</time>
</trkpt>
<trkpt lat="27.843332000" lon="-15.582379000">
  <ele>474.200000</ele>
  <time>2011-09-07T13:39:47Z</time>
</trkpt>
<trkpt lat="27.841719000" lon="-15.582731000">
  <ele>471.300000</ele>
  <time>2011-09-07T13:40:17Z</time>
</trkpt>
<trkpt lat="27.840040000" lon="-15.582397000">
  <ele>461.900000</ele>
  <time>2011-09-07T13:40:49Z</time>
</trkpt>
<trkpt lat="27.839726000" lon="-15.582513000">
  <ele>461.700000</ele>
  <time>2011-09-07T13:40:55Z</time>
</trkpt>
<trkpt lat="27.839502000" lon="-15.582504000">
  <ele>460.800000</ele>
  <time>2011-09-07T13:40:59Z</time>
</trkpt>
<trkpt lat="27.839105000" lon="-15.582106000">
  <ele>455.300000</ele>
  <time>2011-09-07T13:41:07Z</time>
</trkpt>
<trkpt lat="27.838869000" lon="-15.581987000">
  <ele>452.700000</ele>
  <time>2011-09-07T13:41:11Z</time>
</trkpt>
<trkpt lat="27.838042000" lon="-15.582222000">
  <ele>448.900000</ele>
  <time>2011-09-07T13:41:40Z</time>
</trkpt>
<trkpt lat="27.837060000" lon="-15.581912000">
  <ele>442.100000</ele>
  <time>2011-09-07T13:41:59Z</time>
</trkpt>
<trkpt lat="27.836990000" lon="-15.581698000">
  <ele>441.300000</ele>
  <time>2011-09-07T13:42:05Z</time>
</trkpt>
<trkpt lat="27.837353000" lon="-15.580782000">
  <ele>434.300000</ele>
  <time>2011-09-07T13:42:24Z</time>
</trkpt>
<trkpt lat="27.838128000" lon="-15.579522000">
  <ele>428.700000</ele>
  <time>2011-09-07T13:42:48Z</time>
</trkpt>
<trkpt lat="27.838495000" lon="-15.579265000">
  <ele>426.900000</ele>
  <time>2011-09-07T13:42:57Z</time>
</trkpt>
<trkpt lat="27.838879000" lon="-15.579160000">
  <ele>425.400000</ele>
  <time>2011-09-07T13:43:06Z</time>
</trkpt>
<trkpt lat="27.839043000" lon="-15.578852000">
  <ele>424.300000</ele>
  <time>2011-09-07T13:43:13Z</time>
</trkpt>
<trkpt lat="27.839064000" lon="-15.578618000">
  <ele>423.700000</ele>
  <time>2011-09-07T13:43:18Z</time>
</trkpt>
<trkpt lat="27.839250000" lon="-15.578373000">
  <ele>423.600000</ele>
  <time>2011-09-07T13:43:27Z</time>
</trkpt>
<trkpt lat="27.839847000" lon="-15.578090000">
  <ele>422.800000</ele>
  <time>2011-09-07T13:44:22Z</time>
</trkpt>
<trkpt lat="27.838936000" lon="-15.578182000">
  <ele>423.200000</ele>
  <time>2011-09-07T13:44:56Z</time>
</trkpt>
<trkpt lat="27.838791000" lon="-15.578339000">
  <ele>422.700000</ele>
  <time>2011-09-07T13:45:03Z</time>
</trkpt>
<trkpt lat="27.838814000" lon="-15.578721000">
  <ele>421.900000</ele>
  <time>2011-09-07T13:45:13Z</time>
</trkpt>
<trkpt lat="27.838668000" lon="-15.578915000">
  <ele>420.000000</ele>
  <time>2011-09-07T13:45:18Z</time>
</trkpt>
<trkpt lat="27.838143000" lon="-15.578876000">
  <ele>417.700000</ele>
  <time>2011-09-07T13:45:34Z</time>
</trkpt>
<trkpt lat="27.837612000" lon="-15.579357000">
  <ele>415.500000</ele>
  <time>2011-09-07T13:45:52Z</time>
</trkpt>
<trkpt lat="27.837341000" lon="-15.579871000">
  <ele>410.400000</ele>
  <time>2011-09-07T13:46:04Z</time>
</trkpt>
<trkpt lat="27.837030000" lon="-15.579993000">
  <ele>409.800000</ele>
  <time>2011-09-07T13:46:13Z</time>
</trkpt>
<trkpt lat="27.836528000" lon="-15.580655000">
  <ele>405.700000</ele>
  <time>2011-09-07T13:46:41Z</time>
</trkpt>
<trkpt lat="27.836527000" lon="-15.580764000">
  <ele>405.000000</ele>
  <time>2011-09-07T13:47:01Z</time>
</trkpt>
<trkpt lat="27.836520000" lon="-15.580692000">
  <ele>402.600000</ele>
  <time>2011-09-07T13:47:41Z</time>
</trkpt>
<trkpt lat="27.836570000" lon="-15.580758000">
  <ele>397.000000</ele>
  <time>2011-09-07T13:50:26Z</time>
</trkpt>
<trkpt lat="27.836545000" lon="-15.580713000">
  <ele>393.900000</ele>
  <time>2011-09-07T13:50:36Z</time>
</trkpt>
<trkpt lat="27.836587000" lon="-15.580780000">
  <ele>389.400000</ele>
  <time>2011-09-07T13:53:25Z</time>
</trkpt>
<trkpt lat="27.836501000" lon="-15.580746000">
  <ele>388.800000</ele>
  <time>2011-09-07T13:54:02Z</time>
</trkpt>
<trkpt lat="27.836542000" lon="-15.580826000">
  <ele>387.000000</ele>
  <time>2011-09-07T13:55:41Z</time>
</trkpt>
<trkpt lat="27.836546000" lon="-15.580731000">
  <ele>386.400000</ele>
  <time>2011-09-07T13:56:31Z</time>
</trkpt>
<trkpt lat="27.836489000" lon="-15.580776000">
  <ele>386.500000</ele>
  <time>2011-09-07T13:58:17Z</time>
</trkpt>
<trkpt lat="27.836545000" lon="-15.580772000">
  <ele>386.400000</ele>
  <time>2011-09-07T14:00:30Z</time>
</trkpt>
<trkpt lat="27.836148000" lon="-15.581416000">
  <ele>385.100000</ele>
  <time>2011-09-07T14:01:39Z</time>
</trkpt>
<trkpt lat="27.835649000" lon="-15.581983000">
  <ele>383.200000</ele>
  <time>2011-09-07T14:01:55Z</time>
</trkpt>
<trkpt lat="27.835334000" lon="-15.582055000">
  <ele>383.700000</ele>
  <time>2011-09-07T14:02:02Z</time>
</trkpt>
<trkpt lat="27.835340000" lon="-15.581932000">
  <ele>383.700000</ele>
  <time>2011-09-07T14:02:06Z</time>
</trkpt>
<trkpt lat="27.835576000" lon="-15.581680000">
  <ele>383.500000</ele>
  <time>2011-09-07T14:02:14Z</time>
</trkpt>
<trkpt lat="27.835662000" lon="-15.581343000">
  <ele>384.000000</ele>
  <time>2011-09-07T14:02:21Z</time>
</trkpt>
<trkpt lat="27.835621000" lon="-15.581199000">
  <ele>384.400000</ele>
  <time>2011-09-07T14:02:24Z</time>
</trkpt>
<trkpt lat="27.835335000" lon="-15.581014000">
  <ele>383.800000</ele>
  <time>2011-09-07T14:02:31Z</time>
</trkpt>
<trkpt lat="27.834939000" lon="-15.580906000">
  <ele>383.900000</ele>
  <time>2011-09-07T14:02:40Z</time>
</trkpt>
<trkpt lat="27.834568000" lon="-15.580944000">
  <ele>383.500000</ele>
  <time>2011-09-07T14:02:49Z</time>
</trkpt>
<trkpt lat="27.834257000" lon="-15.581388000">
  <ele>378.400000</ele>
  <time>2011-09-07T14:03:00Z</time>
</trkpt>
<trkpt lat="27.834160000" lon="-15.581418000">
  <ele>377.200000</ele>
  <time>2011-09-07T14:03:03Z</time>
</trkpt>
<trkpt lat="27.834116000" lon="-15.581301000">
  <ele>377.200000</ele>
  <time>2011-09-07T14:03:07Z</time>
</trkpt>
<trkpt lat="27.834179000" lon="-15.580849000">
  <ele>377.600000</ele>
  <time>2011-09-07T14:03:20Z</time>
</trkpt>
<trkpt lat="27.833958000" lon="-15.581080000">
  <ele>377.700000</ele>
  <time>2011-09-07T14:03:33Z</time>
</trkpt>
<trkpt lat="27.833821000" lon="-15.581392000">
  <ele>373.300000</ele>
  <time>2011-09-07T14:03:44Z</time>
</trkpt>
<trkpt lat="27.833732000" lon="-15.581340000">
  <ele>372.400000</ele>
  <time>2011-09-07T14:03:49Z</time>
</trkpt>
<trkpt lat="27.833672000" lon="-15.581108000">
  <ele>370.800000</ele>
  <time>2011-09-07T14:03:58Z</time>
</trkpt>
<trkpt lat="27.833475000" lon="-15.581513000">
  <ele>367.200000</ele>
  <time>2011-09-07T14:04:11Z</time>
</trkpt>
<trkpt lat="27.833492000" lon="-15.581981000">
  <ele>366.000000</ele>
  <time>2011-09-07T14:04:24Z</time>
</trkpt>
<trkpt lat="27.834139000" lon="-15.582764000">
  <ele>363.400000</ele>
  <time>2011-09-07T14:04:56Z</time>
</trkpt>
<trkpt lat="27.834169000" lon="-15.583315000">
  <ele>359.800000</ele>
  <time>2011-09-07T14:05:13Z</time>
</trkpt>
<trkpt lat="27.834603000" lon="-15.583175000">
  <ele>351.400000</ele>
  <time>2011-09-07T14:05:25Z</time>
</trkpt>
<trkpt lat="27.834773000" lon="-15.582936000">
  <ele>350.600000</ele>
  <time>2011-09-07T14:05:32Z</time>
</trkpt>
<trkpt lat="27.834908000" lon="-15.583262000">
  <ele>350.300000</ele>
  <time>2011-09-07T14:05:44Z</time>
</trkpt>
<trkpt lat="27.835987000" lon="-15.583865000">
  <ele>347.700000</ele>
  <time>2011-09-07T14:06:16Z</time>
</trkpt>
<trkpt lat="27.835818000" lon="-15.584161000">
  <ele>348.800000</ele>
  <time>2011-09-07T14:06:35Z</time>
</trkpt>
<trkpt lat="27.835651000" lon="-15.584256000">
  <ele>349.300000</ele>
  <time>2011-09-07T14:06:46Z</time>
</trkpt>
<trkpt lat="27.833961000" lon="-15.584596000">
  <ele>355.200000</ele>
  <time>2011-09-07T14:07:48Z</time>
</trkpt>
<trkpt lat="27.833212000" lon="-15.584629000">
  <ele>356.300000</ele>
  <time>2011-09-07T14:08:12Z</time>
</trkpt>
<trkpt lat="27.832333000" lon="-15.584429000">
  <ele>357.200000</ele>
  <time>2011-09-07T14:08:41Z</time>
</trkpt>
<trkpt lat="27.832158000" lon="-15.584545000">
  <ele>357.000000</ele>
  <time>2011-09-07T14:08:51Z</time>
</trkpt>
<trkpt lat="27.831934000" lon="-15.584469000">
  <ele>356.000000</ele>
  <time>2011-09-07T14:09:16Z</time>
</trkpt>
<trkpt lat="27.831569000" lon="-15.584559000">
  <ele>354.500000</ele>
  <time>2011-09-07T14:09:44Z</time>
</trkpt>
<trkpt lat="27.830798000" lon="-15.584400000">
  <ele>354.800000</ele>
  <time>2011-09-07T14:10:14Z</time>
</trkpt>
<trkpt lat="27.830269000" lon="-15.584438000">
  <ele>355.000000</ele>
  <time>2011-09-07T14:10:29Z</time>
</trkpt>
<trkpt lat="27.829783000" lon="-15.584634000">
  <ele>353.800000</ele>
  <time>2011-09-07T14:10:51Z</time>
</trkpt>
<trkpt lat="27.829441000" lon="-15.585050000">
  <ele>352.900000</ele>
  <time>2011-09-07T14:11:13Z</time>
</trkpt>
<trkpt lat="27.828855000" lon="-15.585262000">
  <ele>351.300000</ele>
  <time>2011-09-07T14:11:45Z</time>
</trkpt>
<trkpt lat="27.827152000" lon="-15.585264000">
  <ele>348.300000</ele>
  <time>2011-09-07T14:13:25Z</time>
</trkpt>
<trkpt lat="27.826298000" lon="-15.585385000">
  <ele>346.900000</ele>
  <time>2011-09-07T14:13:48Z</time>
</trkpt>
<trkpt lat="27.825522000" lon="-15.585025000">
  <ele>346.200000</ele>
  <time>2011-09-07T14:14:22Z</time>
</trkpt>
<trkpt lat="27.824906000" lon="-15.584991000">
  <ele>345.500000</ele>
  <time>2011-09-07T14:14:47Z</time>
</trkpt>
<trkpt lat="27.824734000" lon="-15.584848000">
  <ele>345.200000</ele>
  <time>2011-09-07T14:14:55Z</time>
</trkpt>
<trkpt lat="27.824532000" lon="-15.584803000">
  <ele>344.900000</ele>
  <time>2011-09-07T14:15:01Z</time>
</trkpt>
<trkpt lat="27.824743000" lon="-15.584495000">
  <ele>344.200000</ele>
  <time>2011-09-07T14:15:11Z</time>
</trkpt>
<trkpt lat="27.824893000" lon="-15.584027000">
  <ele>340.100000</ele>
  <time>2011-09-07T14:15:24Z</time>
</trkpt>
<trkpt lat="27.824785000" lon="-15.583851000">
  <ele>335.200000</ele>
  <time>2011-09-07T14:15:28Z</time>
</trkpt>
<trkpt lat="27.823259000" lon="-15.583218000">
  <ele>313.400000</ele>
  <time>2011-09-07T14:16:05Z</time>
</trkpt>
<trkpt lat="27.823194000" lon="-15.583292000">
  <ele>312.400000</ele>
  <time>2011-09-07T14:16:11Z</time>
</trkpt>
<trkpt lat="27.823340000" lon="-15.583741000">
  <ele>307.400000</ele>
  <time>2011-09-07T14:16:24Z</time>
</trkpt>
<trkpt lat="27.823536000" lon="-15.584006000">
  <ele>303.500000</ele>
  <time>2011-09-07T14:16:34Z</time>
</trkpt>
<trkpt lat="27.823497000" lon="-15.584241000">
  <ele>300.500000</ele>
  <time>2011-09-07T14:16:42Z</time>
</trkpt>
<trkpt lat="27.822841000" lon="-15.584852000">
  <ele>286.700000</ele>
  <time>2011-09-07T14:17:08Z</time>
</trkpt>
<trkpt lat="27.822565000" lon="-15.584946000">
  <ele>284.300000</ele>
  <time>2011-09-07T14:17:17Z</time>
</trkpt>
<trkpt lat="27.822311000" lon="-15.585266000">
  <ele>274.100000</ele>
  <time>2011-09-07T14:17:26Z</time>
</trkpt>
<trkpt lat="27.821538000" lon="-15.585541000">
  <ele>272.000000</ele>
  <time>2011-09-07T14:17:47Z</time>
</trkpt>
<trkpt lat="27.821082000" lon="-15.586165000">
  <ele>269.000000</ele>
  <time>2011-09-07T14:18:08Z</time>
</trkpt>
<trkpt lat="27.820464000" lon="-15.586556000">
  <ele>263.000000</ele>
  <time>2011-09-07T14:18:32Z</time>
</trkpt>
<trkpt lat="27.820398000" lon="-15.586487000">
  <ele>262.400000</ele>
  <time>2011-09-07T14:18:36Z</time>
</trkpt>
<trkpt lat="27.820820000" lon="-15.585373000">
  <ele>254.000000</ele>
  <time>2011-09-07T14:19:26Z</time>
</trkpt>
<trkpt lat="27.820731000" lon="-15.585330000">
  <ele>251.000000</ele>
  <time>2011-09-07T14:19:32Z</time>
</trkpt>
<trkpt lat="27.820295000" lon="-15.585470000">
  <ele>233.900000</ele>
  <time>2011-09-07T14:19:47Z</time>
</trkpt>
<trkpt lat="27.819276000" lon="-15.586333000">
  <ele>208.900000</ele>
  <time>2011-09-07T14:20:17Z</time>
</trkpt>
<trkpt lat="27.818715000" lon="-15.586702000">
  <ele>207.200000</ele>
  <time>2011-09-07T14:20:37Z</time>
</trkpt>
<trkpt lat="27.818303000" lon="-15.586738000">
  <ele>205.600000</ele>
  <time>2011-09-07T14:20:49Z</time>
</trkpt>
<trkpt lat="27.818012000" lon="-15.586899000">
  <ele>203.300000</ele>
  <time>2011-09-07T14:20:58Z</time>
</trkpt>
<trkpt lat="27.817625000" lon="-15.586935000">
  <ele>201.500000</ele>
  <time>2011-09-07T14:21:22Z</time>
</trkpt>
<trkpt lat="27.817651000" lon="-15.586979000">
  <ele>201.400000</ele>
  <time>2011-09-07T14:21:32Z</time>
</trkpt>
<trkpt lat="27.817174000" lon="-15.586949000">
  <ele>198.500000</ele>
  <time>2011-09-07T14:22:02Z</time>
</trkpt>
<trkpt lat="27.816814000" lon="-15.587313000">
  <ele>197.600000</ele>
  <time>2011-09-07T14:22:22Z</time>
</trkpt>
<trkpt lat="27.816398000" lon="-15.587416000">
  <ele>196.600000</ele>
  <time>2011-09-07T14:22:36Z</time>
</trkpt>
<trkpt lat="27.815389000" lon="-15.587448000">
  <ele>192.800000</ele>
  <time>2011-09-07T14:23:12Z</time>
</trkpt>
<trkpt lat="27.815178000" lon="-15.587365000">
  <ele>191.600000</ele>
  <time>2011-09-07T14:23:20Z</time>
</trkpt>
<trkpt lat="27.814659000" lon="-15.587472000">
  <ele>188.700000</ele>
  <time>2011-09-07T14:23:42Z</time>
</trkpt>
<trkpt lat="27.814119000" lon="-15.587175000">
  <ele>185.800000</ele>
  <time>2011-09-07T14:24:09Z</time>
</trkpt>
<trkpt lat="27.814138000" lon="-15.587034000">
  <ele>184.600000</ele>
  <time>2011-09-07T14:26:25Z</time>
</trkpt>
<trkpt lat="27.814096000" lon="-15.587181000">
  <ele>186.200000</ele>
  <time>2011-09-07T14:31:35Z</time>
</trkpt>
<trkpt lat="27.814131000" lon="-15.587146000">
  <ele>185.600000</ele>
  <time>2011-09-07T14:32:02Z</time>
</trkpt>
<trkpt lat="27.813882000" lon="-15.587086000">
  <ele>184.200000</ele>
  <time>2011-09-07T14:32:28Z</time>
</trkpt>
<trkpt lat="27.813366000" lon="-15.587148000">
  <ele>182.500000</ele>
  <time>2011-09-07T14:32:45Z</time>
</trkpt>
<trkpt lat="27.812609000" lon="-15.586831000">
  <ele>180.400000</ele>
  <time>2011-09-07T14:33:13Z</time>
</trkpt>
<trkpt lat="27.812044000" lon="-15.586936000">
  <ele>179.100000</ele>
  <time>2011-09-07T14:33:28Z</time>
</trkpt>
<trkpt lat="27.811840000" lon="-15.586880000">
  <ele>178.100000</ele>
  <time>2011-09-07T14:33:35Z</time>
</trkpt>
<trkpt lat="27.811301000" lon="-15.587050000">
  <ele>176.200000</ele>
  <time>2011-09-07T14:33:51Z</time>
</trkpt>
<trkpt lat="27.810442000" lon="-15.587485000">
  <ele>172.900000</ele>
  <time>2011-09-07T14:34:23Z</time>
</trkpt>
<trkpt lat="27.809913000" lon="-15.587512000">
  <ele>170.600000</ele>
  <time>2011-09-07T14:34:40Z</time>
</trkpt>
<trkpt lat="27.809496000" lon="-15.587438000">
  <ele>168.400000</ele>
  <time>2011-09-07T14:34:57Z</time>
</trkpt>
<trkpt lat="27.809122000" lon="-15.587164000">
  <ele>168.800000</ele>
  <time>2011-09-07T14:35:12Z</time>
</trkpt>
<trkpt lat="27.807284000" lon="-15.587035000">
  <ele>161.800000</ele>
  <time>2011-09-07T14:36:02Z</time>
</trkpt>
<trkpt lat="27.806420000" lon="-15.587723000">
  <ele>153.700000</ele>
  <time>2011-09-07T14:36:38Z</time>
</trkpt>
<trkpt lat="27.804999000" lon="-15.588192000">
  <ele>143.000000</ele>
  <time>2011-09-07T14:37:18Z</time>
</trkpt>
<trkpt lat="27.803557000" lon="-15.588333000">
  <ele>142.400000</ele>
  <time>2011-09-07T14:37:58Z</time>
</trkpt>
<trkpt lat="27.803121000" lon="-15.588129000">
  <ele>140.800000</ele>
  <time>2011-09-07T14:38:07Z</time>
</trkpt>
<trkpt lat="27.801622000" lon="-15.588063000">
  <ele>145.700000</ele>
  <time>2011-09-07T14:38:52Z</time>
</trkpt>
<trkpt lat="27.800974000" lon="-15.587649000">
  <ele>145.800000</ele>
  <time>2011-09-07T14:39:17Z</time>
</trkpt>
<trkpt lat="27.800177000" lon="-15.587271000">
  <ele>147.400000</ele>
  <time>2011-09-07T14:39:41Z</time>
</trkpt>
<trkpt lat="27.799857000" lon="-15.587033000">
  <ele>149.500000</ele>
  <time>2011-09-07T14:39:52Z</time>
</trkpt>
<trkpt lat="27.799457000" lon="-15.586882000">
  <ele>152.800000</ele>
  <time>2011-09-07T14:40:02Z</time>
</trkpt>
<trkpt lat="27.799058000" lon="-15.586582000">
  <ele>155.600000</ele>
  <time>2011-09-07T14:40:14Z</time>
</trkpt>
<trkpt lat="27.798283000" lon="-15.586261000">
  <ele>203.300000</ele>
  <time>2011-09-07T14:40:30Z</time>
</trkpt>
<trkpt lat="27.798162000" lon="-15.586071000">
  <ele>201.400000</ele>
  <time>2011-09-07T14:40:36Z</time>
</trkpt>
<trkpt lat="27.797607000" lon="-15.585631000">
  <ele>190.300000</ele>
  <time>2011-09-07T14:41:00Z</time>
</trkpt>
<trkpt lat="27.797406000" lon="-15.585589000">
  <ele>192.200000</ele>
  <time>2011-09-07T14:41:05Z</time>
</trkpt>
<trkpt lat="27.795755000" lon="-15.584379000">
  <ele>183.500000</ele>
  <time>2011-09-07T14:41:57Z</time>
</trkpt>
<trkpt lat="27.794785000" lon="-15.583999000">
  <ele>177.600000</ele>
  <time>2011-09-07T14:42:25Z</time>
</trkpt>
<trkpt lat="27.793890000" lon="-15.584313000">
  <ele>145.900000</ele>
  <time>2011-09-07T14:42:55Z</time>
</trkpt>
<trkpt lat="27.793180000" lon="-15.584319000">
  <ele>134.800000</ele>
  <time>2011-09-07T14:43:13Z</time>
</trkpt>
<trkpt lat="27.792349000" lon="-15.584108000">
  <ele>132.700000</ele>
  <time>2011-09-07T14:43:38Z</time>
</trkpt>
<trkpt lat="27.791097000" lon="-15.583317000">
  <ele>120.700000</ele>
  <time>2011-09-07T14:44:15Z</time>
</trkpt>
<trkpt lat="27.790231000" lon="-15.582955000">
  <ele>115.300000</ele>
  <time>2011-09-07T14:44:37Z</time>
</trkpt>
<trkpt lat="27.789645000" lon="-15.582345000">
  <ele>108.100000</ele>
  <time>2011-09-07T14:45:01Z</time>
</trkpt>
<trkpt lat="27.788485000" lon="-15.581831000">
  <ele>98.100000</ele>
  <time>2011-09-07T14:45:38Z</time>
</trkpt>
<trkpt lat="27.787943000" lon="-15.581876000">
  <ele>94.400000</ele>
  <time>2011-09-07T14:45:55Z</time>
</trkpt>
<trkpt lat="27.786681000" lon="-15.582416000">
  <ele>79.200000</ele>
  <time>2011-09-07T14:46:29Z</time>
</trkpt>
<trkpt lat="27.785687000" lon="-15.583488000">
  <ele>74.500000</ele>
  <time>2011-09-07T14:47:04Z</time>
</trkpt>
<trkpt lat="27.785245000" lon="-15.583807000">
  <ele>72.200000</ele>
  <time>2011-09-07T14:47:19Z</time>
</trkpt>
<trkpt lat="27.785020000" lon="-15.584085000">
  <ele>69.600000</ele>
  <time>2011-09-07T14:47:27Z</time>
</trkpt>
<trkpt lat="27.784730000" lon="-15.584726000">
  <ele>65.600000</ele>
  <time>2011-09-07T14:47:41Z</time>
</trkpt>
<trkpt lat="27.783947000" lon="-15.585695000">
  <ele>63.500000</ele>
  <time>2011-09-07T14:48:05Z</time>
</trkpt>
<trkpt lat="27.783646000" lon="-15.585905000">
  <ele>63.000000</ele>
  <time>2011-09-07T14:48:14Z</time>
</trkpt>
<trkpt lat="27.782718000" lon="-15.586123000">
  <ele>64.900000</ele>
  <time>2011-09-07T14:48:37Z</time>
</trkpt>
<trkpt lat="27.781704000" lon="-15.586543000">
  <ele>64.600000</ele>
  <time>2011-09-07T14:49:02Z</time>
</trkpt>
<trkpt lat="27.780781000" lon="-15.586561000">
  <ele>62.300000</ele>
  <time>2011-09-07T14:49:17Z</time>
</trkpt>
<trkpt lat="27.779390000" lon="-15.587015000">
  <ele>60.400000</ele>
  <time>2011-09-07T14:49:51Z</time>
</trkpt>
<trkpt lat="27.778337000" lon="-15.587181000">
  <ele>59.400000</ele>
  <time>2011-09-07T14:50:13Z</time>
</trkpt>
<trkpt lat="27.777212000" lon="-15.587472000">
  <ele>57.400000</ele>
  <time>2011-09-07T14:50:35Z</time>
</trkpt>
<trkpt lat="27.776799000" lon="-15.587710000">
  <ele>56.800000</ele>
  <time>2011-09-07T14:50:45Z</time>
</trkpt>
<trkpt lat="27.776128000" lon="-15.588590000">
  <ele>53.200000</ele>
  <time>2011-09-07T14:51:05Z</time>
</trkpt>
<trkpt lat="27.774500000" lon="-15.590080000">
  <ele>49.500000</ele>
  <time>2011-09-07T14:51:49Z</time>
</trkpt>
<trkpt lat="27.774099000" lon="-15.590872000">
  <ele>50.300000</ele>
  <time>2011-09-07T14:52:05Z</time>
</trkpt>
<trkpt lat="27.773757000" lon="-15.591281000">
  <ele>50.000000</ele>
  <time>2011-09-07T14:52:15Z</time>
</trkpt>
<trkpt lat="27.773246000" lon="-15.591701000">
  <ele>47.600000</ele>
  <time>2011-09-07T14:52:27Z</time>
</trkpt>
<trkpt lat="27.772663000" lon="-15.592046000">
  <ele>46.500000</ele>
  <time>2011-09-07T14:52:39Z</time>
</trkpt>
<trkpt lat="27.772223000" lon="-15.592675000">
  <ele>45.600000</ele>
  <time>2011-09-07T14:52:55Z</time>
</trkpt>
<trkpt lat="27.771628000" lon="-15.593212000">
  <ele>45.300000</ele>
  <time>2011-09-07T14:53:12Z</time>
</trkpt>
<trkpt lat="27.770281000" lon="-15.593553000">
  <ele>40.500000</ele>
  <time>2011-09-07T14:53:50Z</time>
</trkpt>
<trkpt lat="27.769692000" lon="-15.594014000">
  <ele>42.500000</ele>
  <time>2011-09-07T14:54:05Z</time>
</trkpt>
<trkpt lat="27.769318000" lon="-15.594432000">
  <ele>42.300000</ele>
  <time>2011-09-07T14:54:15Z</time>
</trkpt>
<trkpt lat="27.768841000" lon="-15.595324000">
  <ele>41.000000</ele>
  <time>2011-09-07T14:54:29Z</time>
</trkpt>
<trkpt lat="27.768535000" lon="-15.595592000">
  <ele>40.700000</ele>
  <time>2011-09-07T14:54:35Z</time>
</trkpt>
<trkpt lat="27.768175000" lon="-15.595638000">
  <ele>40.500000</ele>
  <time>2011-09-07T14:56:04Z</time>
</trkpt>
</trkseg>
</trk>
</gpx>
